sensor_id;sensor_type;location;lat;lon;timestamp;P1;durP1;ratioP1;P2;durP2;ratioP2
54517;SDS011;40423;53.176;6.002;2022-07-29T00:01:24;2.97;;;1.42;;
54517;SDS011;40423;53.176;6.002;2022-07-29T00:03:55;3.85;;;1.35;;
54517;SDS011;40423;53.176;6.002;2022-07-29T00:06:23;2.50;;;1.20;;
54517;SDS011;40423;53.176;6.002;2022-07-29T00:08:57;2.70;;;1.08;;
54517;SDS011;40423;53.176;6.002;2022-07-29T00:11:38;3.85;;;1.67;;
54517;SDS011;40423;53.176;6.002;2022-07-29T00:14:29;2.25;;;1.20;;
54517;SDS011;40423;53.176;6.002;2022-07-29T00:17:20;3.63;;;1.30;;
54517;SDS011;40423;53.176;6.002;2022-07-29T00:20:00;3.97;;;1.30;;
54517;SDS011;40423;53.176;6.002;2022-07-29T00:22:53;2.90;;;1.13;;
54517;SDS011;40423;53.176;6.002;2022-07-29T00:25:44;2.63;;;1.30;;
54517;SDS011;40423;53.176;6.002;2022-07-29T00:28:19;3.60;;;1.15;;
54517;SDS011;40423;53.176;6.002;2022-07-29T00:30:54;3.85;;;1.10;;
54517;SDS011;40423;53.176;6.002;2022-07-29T00:33:48;3.15;;;1.38;;
54517;SDS011;40423;53.176;6.002;2022-07-29T00:36:27;7.20;;;1.50;;
54517;SDS011;40423;53.176;6.002;2022-07-29T00:38:56;3.97;;;1.20;;
54517;SDS011;40423;53.176;6.002;2022-07-29T00:42:06;4.38;;;1.33;;
54517;SDS011;40423;53.176;6.002;2022-07-29T00:44:50;4.60;;;1.33;;
54517;SDS011;40423;53.176;6.002;2022-07-29T00:50:17;3.80;;;1.13;;
54517;SDS011;40423;53.176;6.002;2022-07-29T00:52:54;3.50;;;1.30;;
54517;SDS011;40423;53.176;6.002;2022-07-29T00:55:30;3.92;;;1.20;;
54517;SDS011;40423;53.176;6.002;2022-07-29T00:57:59;3.78;;;1.40;;
54517;SDS011;40423;53.176;6.002;2022-07-29T01:01:07;2.97;;;1.33;;
54517;SDS011;40423;53.176;6.002;2022-07-29T01:03:51;2.30;;;1.17;;
54517;SDS011;40423;53.176;6.002;2022-07-29T01:07:00;6.28;;;2.83;;
54517;SDS011;40423;53.176;6.002;2022-07-29T01:09:47;3.42;;;1.20;;
54517;SDS011;40423;53.176;6.002;2022-07-29T01:15:06;3.40;;;1.40;;
54517;SDS011;40423;53.176;6.002;2022-07-29T01:26:35;3.38;;;1.48;;
54517;SDS011;40423;53.176;6.002;2022-07-29T01:29:19;3.42;;;1.30;;
54517;SDS011;40423;53.176;6.002;2022-07-29T01:35:31;2.65;;;1.13;;
54517;SDS011;40423;53.176;6.002;2022-07-29T01:38:36;3.13;;;1.27;;
54517;SDS011;40423;53.176;6.002;2022-07-29T01:48:08;5.20;;;1.40;;
54517;SDS011;40423;53.176;6.002;2022-07-29T01:55:02;6.72;;;2.08;;
54517;SDS011;40423;53.176;6.002;2022-07-29T01:58:21;2.97;;;1.33;;
54517;SDS011;40423;53.176;6.002;2022-07-29T02:00:59;6.47;;;1.73;;
54517;SDS011;40423;53.176;6.002;2022-07-29T02:03:57;3.00;;;1.80;;
54517;SDS011;40423;53.176;6.002;2022-07-29T02:07:02;2.40;;;1.40;;
54517;SDS011;40423;53.176;6.002;2022-07-29T02:10:11;3.88;;;1.65;;
54517;SDS011;40423;53.176;6.002;2022-07-29T02:13:10;3.65;;;1.30;;
54517;SDS011;40423;53.176;6.002;2022-07-29T02:15:51;3.85;;;1.30;;
54517;SDS011;40423;53.176;6.002;2022-07-29T02:18:39;8.38;;;1.85;;
54517;SDS011;40423;53.176;6.002;2022-07-29T02:21:08;4.30;;;1.33;;
54517;SDS011;40423;53.176;6.002;2022-07-29T02:23:36;5.32;;;1.80;;
54517;SDS011;40423;53.176;6.002;2022-07-29T02:26:04;5.90;;;1.58;;
54517;SDS011;40423;53.176;6.002;2022-07-29T02:28:31;2.50;;;1.58;;
54517;SDS011;40423;53.176;6.002;2022-07-29T02:30:59;4.07;;;1.63;;
54517;SDS011;40423;53.176;6.002;2022-07-29T02:33:27;3.83;;;1.60;;
54517;SDS011;40423;53.176;6.002;2022-07-29T02:35:55;5.22;;;1.65;;
54517;SDS011;40423;53.176;6.002;2022-07-29T02:38:23;4.25;;;1.70;;
54517;SDS011;40423;53.176;6.002;2022-07-29T02:41:10;2.08;;;1.42;;
54517;SDS011;40423;53.176;6.002;2022-07-29T02:43:39;2.92;;;1.35;;
54517;SDS011;40423;53.176;6.002;2022-07-29T02:46:08;3.97;;;1.88;;
54517;SDS011;40423;53.176;6.002;2022-07-29T02:48:46;2.50;;;1.40;;
54517;SDS011;40423;53.176;6.002;2022-07-29T02:51:18;5.75;;;1.60;;
54517;SDS011;40423;53.176;6.002;2022-07-29T02:53:51;8.57;;;1.75;;
54517;SDS011;40423;53.176;6.002;2022-07-29T02:56:22;3.33;;;1.60;;
54517;SDS011;40423;53.176;6.002;2022-07-29T02:58:57;5.72;;;1.80;;
54517;SDS011;40423;53.176;6.002;2022-07-29T03:01:27;4.72;;;2.13;;
54517;SDS011;40423;53.176;6.002;2022-07-29T03:03:56;4.07;;;2.00;;
54517;SDS011;40423;53.176;6.002;2022-07-29T03:06:28;4.63;;;2.00;;
54517;SDS011;40423;53.176;6.002;2022-07-29T03:08:55;5.93;;;1.92;;
54517;SDS011;40423;53.176;6.002;2022-07-29T03:11:22;3.63;;;1.98;;
54517;SDS011;40423;53.176;6.002;2022-07-29T03:13:48;5.68;;;2.03;;
54517;SDS011;40423;53.176;6.002;2022-07-29T03:16:14;7.72;;;2.28;;
54517;SDS011;40423;53.176;6.002;2022-07-29T03:18:41;5.38;;;2.00;;
54517;SDS011;40423;53.176;6.002;2022-07-29T03:21:07;3.78;;;1.52;;
54517;SDS011;40423;53.176;6.002;2022-07-29T03:23:33;4.43;;;2.00;;
54517;SDS011;40423;53.176;6.002;2022-07-29T03:25:59;4.35;;;1.90;;
54517;SDS011;40423;53.176;6.002;2022-07-29T03:28:25;6.10;;;1.75;;
54517;SDS011;40423;53.176;6.002;2022-07-29T03:30:52;5.05;;;2.25;;
54517;SDS011;40423;53.176;6.002;2022-07-29T03:33:18;3.25;;;1.50;;
54517;SDS011;40423;53.176;6.002;2022-07-29T03:35:44;5.43;;;2.70;;
54517;SDS011;40423;53.176;6.002;2022-07-29T03:38:10;5.25;;;1.70;;
54517;SDS011;40423;53.176;6.002;2022-07-29T03:40:38;3.55;;;1.90;;
54517;SDS011;40423;53.176;6.002;2022-07-29T03:43:10;4.85;;;1.70;;
54517;SDS011;40423;53.176;6.002;2022-07-29T03:45:38;4.38;;;1.38;;
54517;SDS011;40423;53.176;6.002;2022-07-29T03:48:07;4.43;;;1.77;;
54517;SDS011;40423;53.176;6.002;2022-07-29T03:50:35;4.07;;;1.58;;
54517;SDS011;40423;53.176;6.002;2022-07-29T03:53:01;4.10;;;1.55;;
54517;SDS011;40423;53.176;6.002;2022-07-29T03:55:28;6.53;;;1.48;;
54517;SDS011;40423;53.176;6.002;2022-07-29T03:57:57;3.55;;;1.48;;
54517;SDS011;40423;53.176;6.002;2022-07-29T04:00:25;2.45;;;1.63;;
54517;SDS011;40423;53.176;6.002;2022-07-29T04:02:52;3.47;;;1.55;;
54517;SDS011;40423;53.176;6.002;2022-07-29T04:05:18;3.00;;;1.30;;
54517;SDS011;40423;53.176;6.002;2022-07-29T04:07:44;4.07;;;1.55;;
54517;SDS011;40423;53.176;6.002;2022-07-29T04:10:11;4.93;;;1.92;;
54517;SDS011;40423;53.176;6.002;2022-07-29T04:12:38;7.18;;;1.60;;
54517;SDS011;40423;53.176;6.002;2022-07-29T04:15:04;5.32;;;1.50;;
54517;SDS011;40423;53.176;6.002;2022-07-29T04:17:30;3.50;;;1.27;;
54517;SDS011;40423;53.176;6.002;2022-07-29T04:19:56;2.50;;;1.45;;
54517;SDS011;40423;53.176;6.002;2022-07-29T04:22:21;5.30;;;1.50;;
54517;SDS011;40423;53.176;6.002;2022-07-29T04:24:47;6.57;;;1.70;;
54517;SDS011;40423;53.176;6.002;2022-07-29T04:27:13;9.95;;;2.00;;
54517;SDS011;40423;53.176;6.002;2022-07-29T04:29:38;3.22;;;1.10;;
54517;SDS011;40423;53.176;6.002;2022-07-29T04:32:04;3.30;;;1.30;;
54517;SDS011;40423;53.176;6.002;2022-07-29T04:34:30;4.00;;;1.30;;
54517;SDS011;40423;53.176;6.002;2022-07-29T04:36:56;4.70;;;1.60;;
54517;SDS011;40423;53.176;6.002;2022-07-29T04:39:22;5.05;;;1.35;;
54517;SDS011;40423;53.176;6.002;2022-07-29T04:41:47;3.67;;;1.55;;
54517;SDS011;40423;53.176;6.002;2022-07-29T04:44:14;3.58;;;1.20;;
54517;SDS011;40423;53.176;6.002;2022-07-29T04:46:39;3.00;;;1.55;;
54517;SDS011;40423;53.176;6.002;2022-07-29T04:49:05;6.88;;;1.65;;
54517;SDS011;40423;53.176;6.002;2022-07-29T04:51:31;3.25;;;1.48;;
54517;SDS011;40423;53.176;6.002;2022-07-29T04:53:57;4.60;;;1.70;;
54517;SDS011;40423;53.176;6.002;2022-07-29T04:56:22;4.68;;;1.48;;
54517;SDS011;40423;53.176;6.002;2022-07-29T04:58:48;7.95;;;1.50;;
54517;SDS011;40423;53.176;6.002;2022-07-29T05:01:14;6.53;;;1.90;;
54517;SDS011;40423;53.176;6.002;2022-07-29T05:03:40;4.93;;;1.63;;
54517;SDS011;40423;53.176;6.002;2022-07-29T05:06:05;5.95;;;1.38;;
54517;SDS011;40423;53.176;6.002;2022-07-29T05:08:31;5.97;;;1.40;;
54517;SDS011;40423;53.176;6.002;2022-07-29T05:10:57;3.72;;;1.40;;
54517;SDS011;40423;53.176;6.002;2022-07-29T05:13:23;6.40;;;1.67;;
54517;SDS011;40423;53.176;6.002;2022-07-29T05:15:48;4.78;;;1.67;;
54517;SDS011;40423;53.176;6.002;2022-07-29T05:18:14;4.25;;;1.48;;
54517;SDS011;40423;53.176;6.002;2022-07-29T05:20:40;4.40;;;1.55;;
54517;SDS011;40423;53.176;6.002;2022-07-29T05:23:06;8.30;;;2.03;;
54517;SDS011;40423;53.176;6.002;2022-07-29T05:25:32;3.72;;;1.40;;
54517;SDS011;40423;53.176;6.002;2022-07-29T05:27:58;4.10;;;1.60;;
54517;SDS011;40423;53.176;6.002;2022-07-29T05:30:24;6.57;;;1.38;;
54517;SDS011;40423;53.176;6.002;2022-07-29T05:32:50;3.72;;;1.40;;
54517;SDS011;40423;53.176;6.002;2022-07-29T05:35:16;4.90;;;1.40;;
54517;SDS011;40423;53.176;6.002;2022-07-29T05:37:42;5.65;;;1.50;;
54517;SDS011;40423;53.176;6.002;2022-07-29T05:40:08;8.13;;;2.55;;
54517;SDS011;40423;53.176;6.002;2022-07-29T05:42:34;4.10;;;1.60;;
54517;SDS011;40423;53.176;6.002;2022-07-29T05:45:00;4.25;;;1.50;;
54517;SDS011;40423;53.176;6.002;2022-07-29T05:47:26;5.30;;;1.80;;
54517;SDS011;40423;53.176;6.002;2022-07-29T05:49:52;5.38;;;1.60;;
54517;SDS011;40423;53.176;6.002;2022-07-29T05:52:18;3.75;;;1.42;;
54517;SDS011;40423;53.176;6.002;2022-07-29T05:54:44;6.93;;;1.77;;
54517;SDS011;40423;53.176;6.002;2022-07-29T05:57:20;4.60;;;1.45;;
54517;SDS011;40423;53.176;6.002;2022-07-29T05:59:48;6.93;;;1.50;;
54517;SDS011;40423;53.176;6.002;2022-07-29T06:02:15;5.70;;;1.67;;
54517;SDS011;40423;53.176;6.002;2022-07-29T06:04:41;3.70;;;1.23;;
54517;SDS011;40423;53.176;6.002;2022-07-29T06:07:07;4.43;;;1.60;;
54517;SDS011;40423;53.176;6.002;2022-07-29T06:09:33;4.47;;;1.25;;
54517;SDS011;40423;53.176;6.002;2022-07-29T06:11:59;7.10;;;2.17;;
54517;SDS011;40423;53.176;6.002;2022-07-29T06:14:25;6.53;;;1.98;;
54517;SDS011;40423;53.176;6.002;2022-07-29T06:16:51;4.60;;;1.75;;
54517;SDS011;40423;53.176;6.002;2022-07-29T06:19:18;4.20;;;1.52;;
54517;SDS011;40423;53.176;6.002;2022-07-29T06:21:44;4.75;;;1.67;;
54517;SDS011;40423;53.176;6.002;2022-07-29T06:24:11;5.55;;;2.35;;
54517;SDS011;40423;53.176;6.002;2022-07-29T06:26:38;8.02;;;2.50;;
54517;SDS011;40423;53.176;6.002;2022-07-29T06:29:04;5.10;;;1.38;;
54517;SDS011;40423;53.176;6.002;2022-07-29T06:31:30;5.85;;;1.70;;
54517;SDS011;40423;53.176;6.002;2022-07-29T06:33:56;3.58;;;2.47;;
54517;SDS011;40423;53.176;6.002;2022-07-29T06:36:21;5.22;;;1.75;;
54517;SDS011;40423;53.176;6.002;2022-07-29T06:38:47;4.38;;;1.55;;
54517;SDS011;40423;53.176;6.002;2022-07-29T06:41:13;8.00;;;1.90;;
54517;SDS011;40423;53.176;6.002;2022-07-29T06:43:41;4.93;;;1.70;;
54517;SDS011;40423;53.176;6.002;2022-07-29T06:46:09;4.47;;;1.60;;
54517;SDS011;40423;53.176;6.002;2022-07-29T06:48:36;5.47;;;1.75;;
54517;SDS011;40423;53.176;6.002;2022-07-29T06:51:03;6.00;;;1.95;;
54517;SDS011;40423;53.176;6.002;2022-07-29T06:53:29;6.95;;;2.08;;
54517;SDS011;40423;53.176;6.002;2022-07-29T06:55:56;3.55;;;2.03;;
54517;SDS011;40423;53.176;6.002;2022-07-29T06:58:23;5.53;;;2.08;;
54517;SDS011;40423;53.176;6.002;2022-07-29T07:00:49;5.30;;;2.25;;
54517;SDS011;40423;53.176;6.002;2022-07-29T07:03:15;6.80;;;2.42;;
54517;SDS011;40423;53.176;6.002;2022-07-29T07:05:42;7.32;;;1.85;;
54517;SDS011;40423;53.176;6.002;2022-07-29T07:08:08;8.93;;;2.08;;
54517;SDS011;40423;53.176;6.002;2022-07-29T07:10:34;4.95;;;1.80;;
54517;SDS011;40423;53.176;6.002;2022-07-29T07:13:00;6.82;;;2.00;;
54517;SDS011;40423;53.176;6.002;2022-07-29T07:15:26;5.20;;;1.70;;
54517;SDS011;40423;53.176;6.002;2022-07-29T07:17:52;6.00;;;2.20;;
54517;SDS011;40423;53.176;6.002;2022-07-29T07:20:18;9.98;;;2.65;;
54517;SDS011;40423;53.176;6.002;2022-07-29T07:22:44;9.02;;;2.15;;
54517;SDS011;40423;53.176;6.002;2022-07-29T07:25:12;4.95;;;2.38;;
54517;SDS011;40423;53.176;6.002;2022-07-29T07:27:38;6.18;;;1.75;;
54517;SDS011;40423;53.176;6.002;2022-07-29T07:30:04;6.95;;;1.65;;
54517;SDS011;40423;53.176;6.002;2022-07-29T07:32:32;7.55;;;1.95;;
54517;SDS011;40423;53.176;6.002;2022-07-29T07:34:58;5.97;;;2.05;;
54517;SDS011;40423;53.176;6.002;2022-07-29T07:37:24;5.40;;;2.33;;
54517;SDS011;40423;53.176;6.002;2022-07-29T07:39:51;5.95;;;2.58;;
54517;SDS011;40423;53.176;6.002;2022-07-29T07:42:17;5.38;;;2.00;;
54517;SDS011;40423;53.176;6.002;2022-07-29T07:44:43;4.07;;;2.20;;
54517;SDS011;40423;53.176;6.002;2022-07-29T07:47:10;7.53;;;2.90;;
54517;SDS011;40423;53.176;6.002;2022-07-29T07:49:37;6.22;;;2.25;;
54517;SDS011;40423;53.176;6.002;2022-07-29T07:52:03;6.55;;;2.10;;
54517;SDS011;40423;53.176;6.002;2022-07-29T07:54:29;5.55;;;2.03;;
54517;SDS011;40423;53.176;6.002;2022-07-29T07:56:56;7.65;;;2.60;;
54517;SDS011;40423;53.176;6.002;2022-07-29T07:59:22;6.35;;;2.00;;
54517;SDS011;40423;53.176;6.002;2022-07-29T08:01:48;7.03;;;2.67;;
54517;SDS011;40423;53.176;6.002;2022-07-29T08:04:14;8.77;;;2.25;;
54517;SDS011;40423;53.176;6.002;2022-07-29T08:06:40;5.15;;;2.13;;
54517;SDS011;40423;53.176;6.002;2022-07-29T08:09:06;4.35;;;1.85;;
54517;SDS011;40423;53.176;6.002;2022-07-29T08:11:32;7.22;;;2.30;;
54517;SDS011;40423;53.176;6.002;2022-07-29T08:13:58;5.45;;;2.15;;
54517;SDS011;40423;53.176;6.002;2022-07-29T08:16:26;6.53;;;2.53;;
54517;SDS011;40423;53.176;6.002;2022-07-29T08:18:52;10.00;;;2.80;;
54517;SDS011;40423;53.176;6.002;2022-07-29T08:21:22;4.05;;;1.77;;
54517;SDS011;40423;53.176;6.002;2022-07-29T08:23:48;7.88;;;2.42;;
54517;SDS011;40423;53.176;6.002;2022-07-29T08:26:17;6.10;;;2.20;;
54517;SDS011;40423;53.176;6.002;2022-07-29T08:28:47;6.22;;;2.40;;
54517;SDS011;40423;53.176;6.002;2022-07-29T08:31:15;7.18;;;2.38;;
54517;SDS011;40423;53.176;6.002;2022-07-29T08:33:42;7.50;;;2.47;;
54517;SDS011;40423;53.176;6.002;2022-07-29T08:36:07;10.65;;;2.67;;
54517;SDS011;40423;53.176;6.002;2022-07-29T08:38:33;8.63;;;2.42;;
54517;SDS011;40423;53.176;6.002;2022-07-29T08:41:00;5.75;;;2.97;;
54517;SDS011;40423;53.176;6.002;2022-07-29T08:43:27;7.47;;;2.40;;
54517;SDS011;40423;53.176;6.002;2022-07-29T08:45:54;6.78;;;2.40;;
54517;SDS011;40423;53.176;6.002;2022-07-29T08:48:20;4.25;;;1.90;;
54517;SDS011;40423;53.176;6.002;2022-07-29T08:50:48;4.93;;;1.95;;
54517;SDS011;40423;53.176;6.002;2022-07-29T08:53:19;7.10;;;2.42;;
54517;SDS011;40423;53.176;6.002;2022-07-29T08:55:47;6.90;;;2.30;;
54517;SDS011;40423;53.176;6.002;2022-07-29T08:58:14;7.13;;;2.20;;
54517;SDS011;40423;53.176;6.002;2022-07-29T09:00:45;5.78;;;2.33;;
54517;SDS011;40423;53.176;6.002;2022-07-29T09:03:14;9.57;;;2.47;;
54517;SDS011;40423;53.176;6.002;2022-07-29T09:05:42;5.00;;;2.28;;
54517;SDS011;40423;53.176;6.002;2022-07-29T09:08:12;6.20;;;2.22;;
54517;SDS011;40423;53.176;6.002;2022-07-29T09:10:40;6.65;;;2.90;;
54517;SDS011;40423;53.176;6.002;2022-07-29T09:13:07;4.55;;;2.42;;
54517;SDS011;40423;53.176;6.002;2022-07-29T09:15:33;7.82;;;2.30;;
54517;SDS011;40423;53.176;6.002;2022-07-29T09:17:59;8.88;;;2.90;;
54517;SDS011;40423;53.176;6.002;2022-07-29T09:20:25;4.18;;;2.35;;
54517;SDS011;40423;53.176;6.002;2022-07-29T09:23:12;6.68;;;2.50;;
54517;SDS011;40423;53.176;6.002;2022-07-29T09:25:39;5.43;;;2.45;;
54517;SDS011;40423;53.176;6.002;2022-07-29T09:28:09;4.47;;;2.17;;
54517;SDS011;40423;53.176;6.002;2022-07-29T09:30:58;9.23;;;2.88;;
54517;SDS011;40423;53.176;6.002;2022-07-29T09:33:23;4.97;;;2.10;;
54517;SDS011;40423;53.176;6.002;2022-07-29T09:36:03;5.25;;;2.50;;
54517;SDS011;40423;53.176;6.002;2022-07-29T09:38:31;7.22;;;2.70;;
54517;SDS011;40423;53.176;6.002;2022-07-29T09:40:58;7.07;;;2.58;;
54517;SDS011;40423;53.176;6.002;2022-07-29T09:43:26;8.48;;;3.05;;
54517;SDS011;40423;53.176;6.002;2022-07-29T09:45:52;6.22;;;2.70;;
54517;SDS011;40423;53.176;6.002;2022-07-29T09:48:22;4.32;;;2.08;;
54517;SDS011;40423;53.176;6.002;2022-07-29T09:50:50;6.32;;;2.67;;
54517;SDS011;40423;53.176;6.002;2022-07-29T09:53:33;4.65;;;2.17;;
54517;SDS011;40423;53.176;6.002;2022-07-29T09:56:00;5.78;;;2.10;;
54517;SDS011;40423;53.176;6.002;2022-07-29T09:58:26;4.32;;;2.40;;
54517;SDS011;40423;53.176;6.002;2022-07-29T10:00:53;7.05;;;2.45;;
54517;SDS011;40423;53.176;6.002;2022-07-29T10:03:22;4.10;;;2.60;;
54517;SDS011;40423;53.176;6.002;2022-07-29T10:06:07;4.63;;;2.58;;
54517;SDS011;40423;53.176;6.002;2022-07-29T10:08:38;6.93;;;2.40;;
54517;SDS011;40423;53.176;6.002;2022-07-29T10:11:10;8.20;;;2.95;;
54517;SDS011;40423;53.176;6.002;2022-07-29T10:13:38;5.60;;;3.03;;
54517;SDS011;40423;53.176;6.002;2022-07-29T10:16:04;5.45;;;2.88;;
54517;SDS011;40423;53.176;6.002;2022-07-29T10:18:31;4.38;;;2.50;;
54517;SDS011;40423;53.176;6.002;2022-07-29T10:20:57;7.22;;;3.10;;
54517;SDS011;40423;53.176;6.002;2022-07-29T10:23:26;5.43;;;2.70;;
54517;SDS011;40423;53.176;6.002;2022-07-29T10:25:53;8.98;;;3.08;;
54517;SDS011;40423;53.176;6.002;2022-07-29T10:28:19;7.15;;;3.20;;
54517;SDS011;40423;53.176;6.002;2022-07-29T10:30:44;6.95;;;3.00;;
54517;SDS011;40423;53.176;6.002;2022-07-29T10:44:09;6.95;;;2.75;;
54517;SDS011;40423;53.176;6.002;2022-07-29T10:46:42;5.30;;;2.70;;
54517;SDS011;40423;53.176;6.002;2022-07-29T11:07:25;9.27;;;3.13;;
54517;SDS011;40423;53.176;6.002;2022-07-29T11:15:16;6.78;;;2.55;;
54517;SDS011;40423;53.176;6.002;2022-07-29T11:23:22;6.47;;;2.85;;
54517;SDS011;40423;53.176;6.002;2022-07-29T11:31:15;7.82;;;3.05;;
54517;SDS011;40423;53.176;6.002;2022-07-29T11:33:44;5.30;;;2.60;;
54517;SDS011;40423;53.176;6.002;2022-07-29T11:36:11;8.68;;;3.28;;
54517;SDS011;40423;53.176;6.002;2022-07-29T11:38:39;4.60;;;2.45;;
54517;SDS011;40423;53.176;6.002;2022-07-29T11:43:52;7.25;;;3.08;;
54517;SDS011;40423;53.176;6.002;2022-07-29T11:49:11;5.53;;;2.80;;
54517;SDS011;40423;53.176;6.002;2022-07-29T11:51:38;8.15;;;3.17;;
54517;SDS011;40423;53.176;6.002;2022-07-29T11:54:05;9.50;;;3.25;;
54517;SDS011;40423;53.176;6.002;2022-07-29T11:56:36;6.47;;;2.67;;
54517;SDS011;40423;53.176;6.002;2022-07-29T11:59:07;7.55;;;2.83;;
54517;SDS011;40423;53.176;6.002;2022-07-29T12:01:36;5.93;;;2.63;;
54517;SDS011;40423;53.176;6.002;2022-07-29T12:04:02;4.80;;;2.85;;
54517;SDS011;40423;53.176;6.002;2022-07-29T12:06:29;6.28;;;2.80;;
54517;SDS011;40423;53.176;6.002;2022-07-29T12:08:55;6.15;;;2.92;;
54517;SDS011;40423;53.176;6.002;2022-07-29T12:11:21;6.80;;;3.20;;
54517;SDS011;40423;53.176;6.002;2022-07-29T12:13:47;5.82;;;2.80;;
54517;SDS011;40423;53.176;6.002;2022-07-29T12:16:14;8.00;;;3.08;;
54517;SDS011;40423;53.176;6.002;2022-07-29T12:18:40;7.28;;;3.38;;
54517;SDS011;40423;53.176;6.002;2022-07-29T12:21:06;9.40;;;3.20;;
54517;SDS011;40423;53.176;6.002;2022-07-29T12:23:33;7.30;;;3.08;;
54517;SDS011;40423;53.176;6.002;2022-07-29T12:25:59;8.65;;;2.90;;
54517;SDS011;40423;53.176;6.002;2022-07-29T12:28:24;5.53;;;2.88;;
54517;SDS011;40423;53.176;6.002;2022-07-29T12:30:50;5.28;;;2.75;;
54517;SDS011;40423;53.176;6.002;2022-07-29T12:35:51;8.70;;;3.15;;
54517;SDS011;40423;53.176;6.002;2022-07-29T12:38:21;4.77;;;3.13;;
54517;SDS011;40423;53.176;6.002;2022-07-29T12:40:47;9.68;;;3.30;;
54517;SDS011;40423;53.176;6.002;2022-07-29T12:43:15;6.47;;;3.10;;
54517;SDS011;40423;53.176;6.002;2022-07-29T12:45:43;8.77;;;3.92;;
54517;SDS011;40423;53.176;6.002;2022-07-29T12:48:14;8.43;;;3.17;;
54517;SDS011;40423;53.176;6.002;2022-07-29T12:50:57;8.05;;;4.20;;
54517;SDS011;40423;53.176;6.002;2022-07-29T12:53:26;7.43;;;4.03;;
54517;SDS011;40423;53.176;6.002;2022-07-29T12:55:54;7.70;;;3.90;;
54517;SDS011;40423;53.176;6.002;2022-07-29T13:01:12;11.23;;;4.63;;
54517;SDS011;40423;53.176;6.002;2022-07-29T13:03:50;10.23;;;4.55;;
54517;SDS011;40423;53.176;6.002;2022-07-29T13:11:33;7.95;;;4.85;;
54517;SDS011;40423;53.176;6.002;2022-07-29T13:14:01;13.68;;;4.47;;
54517;SDS011;40423;53.176;6.002;2022-07-29T13:16:26;10.02;;;4.05;;
54517;SDS011;40423;53.176;6.002;2022-07-29T13:19:05;6.97;;;3.80;;
54517;SDS011;40423;53.176;6.002;2022-07-29T13:21:33;9.27;;;3.72;;
54517;SDS011;40423;53.176;6.002;2022-07-29T13:23:59;7.63;;;3.80;;
54517;SDS011;40423;53.176;6.002;2022-07-29T13:26:24;7.53;;;4.22;;
54517;SDS011;40423;53.176;6.002;2022-07-29T13:28:50;5.00;;;3.40;;
54517;SDS011;40423;53.176;6.002;2022-07-29T13:31:16;5.35;;;3.08;;
54517;SDS011;40423;53.176;6.002;2022-07-29T13:33:41;10.55;;;3.88;;
54517;SDS011;40423;53.176;6.002;2022-07-29T13:36:07;6.20;;;3.58;;
54517;SDS011;40423;53.176;6.002;2022-07-29T13:38:33;7.10;;;3.60;;
54517;SDS011;40423;53.176;6.002;2022-07-29T13:40:59;11.15;;;3.97;;
54517;SDS011;40423;53.176;6.002;2022-07-29T13:43:25;8.93;;;3.58;;
54517;SDS011;40423;53.176;6.002;2022-07-29T13:45:51;6.63;;;3.78;;
54517;SDS011;40423;53.176;6.002;2022-07-29T13:48:17;8.13;;;3.42;;
54517;SDS011;40423;53.176;6.002;2022-07-29T13:50:42;7.57;;;3.38;;
54517;SDS011;40423;53.176;6.002;2022-07-29T13:53:08;6.35;;;3.42;;
54517;SDS011;40423;53.176;6.002;2022-07-29T13:55:34;7.75;;;3.53;;
54517;SDS011;40423;53.176;6.002;2022-07-29T13:58:00;11.88;;;3.28;;
54517;SDS011;40423;53.176;6.002;2022-07-29T14:00:26;6.57;;;3.28;;
54517;SDS011;40423;53.176;6.002;2022-07-29T14:02:51;6.75;;;3.13;;
54517;SDS011;40423;53.176;6.002;2022-07-29T14:05:17;6.20;;;3.42;;
54517;SDS011;40423;53.176;6.002;2022-07-29T14:07:43;8.82;;;3.58;;
54517;SDS011;40423;53.176;6.002;2022-07-29T14:10:09;10.32;;;3.10;;
54517;SDS011;40423;53.176;6.002;2022-07-29T14:12:35;8.95;;;3.22;;
54517;SDS011;40423;53.176;6.002;2022-07-29T14:15:01;6.38;;;2.83;;
54517;SDS011;40423;53.176;6.002;2022-07-29T14:17:26;8.18;;;3.08;;
54517;SDS011;40423;53.176;6.002;2022-07-29T14:19:52;7.90;;;3.10;;
54517;SDS011;40423;53.176;6.002;2022-07-29T14:22:18;8.40;;;3.03;;
54517;SDS011;40423;53.176;6.002;2022-07-29T14:24:44;6.28;;;3.03;;
54517;SDS011;40423;53.176;6.002;2022-07-29T14:27:10;5.53;;;2.60;;
54517;SDS011;40423;53.176;6.002;2022-07-29T14:29:35;5.55;;;2.90;;
54517;SDS011;40423;53.176;6.002;2022-07-29T14:32:01;9.10;;;3.38;;
54517;SDS011;40423;53.176;6.002;2022-07-29T14:34:27;5.53;;;2.65;;
54517;SDS011;40423;53.176;6.002;2022-07-29T14:36:53;8.75;;;3.15;;
54517;SDS011;40423;53.176;6.002;2022-07-29T14:39:22;10.43;;;3.47;;
54517;SDS011;40423;53.176;6.002;2022-07-29T14:41:50;6.70;;;2.75;;
54517;SDS011;40423;53.176;6.002;2022-07-29T14:44:16;7.05;;;2.83;;
54517;SDS011;40423;53.176;6.002;2022-07-29T14:46:43;4.60;;;2.78;;
54517;SDS011;40423;53.176;6.002;2022-07-29T14:49:09;5.95;;;2.72;;
54517;SDS011;40423;53.176;6.002;2022-07-29T14:51:34;12.73;;;3.40;;
54517;SDS011;40423;53.176;6.002;2022-07-29T14:54:00;7.88;;;3.28;;
54517;SDS011;40423;53.176;6.002;2022-07-29T14:56:26;7.45;;;3.08;;
54517;SDS011;40423;53.176;6.002;2022-07-29T14:58:54;5.97;;;3.03;;
54517;SDS011;40423;53.176;6.002;2022-07-29T15:01:21;7.90;;;2.80;;
54517;SDS011;40423;53.176;6.002;2022-07-29T15:03:46;6.55;;;2.97;;
54517;SDS011;40423;53.176;6.002;2022-07-29T15:06:12;6.38;;;2.70;;
54517;SDS011;40423;53.176;6.002;2022-07-29T15:08:38;9.15;;;3.13;;
54517;SDS011;40423;53.176;6.002;2022-07-29T15:11:03;7.82;;;2.78;;
54517;SDS011;40423;53.176;6.002;2022-07-29T15:13:29;5.18;;;2.22;;
54517;SDS011;40423;53.176;6.002;2022-07-29T15:15:55;9.80;;;2.97;;
54517;SDS011;40423;53.176;6.002;2022-07-29T15:18:21;8.52;;;3.05;;
54517;SDS011;40423;53.176;6.002;2022-07-29T15:20:46;4.40;;;2.42;;
54517;SDS011;40423;53.176;6.002;2022-07-29T15:23:12;3.78;;;2.30;;
54517;SDS011;40423;53.176;6.002;2022-07-29T15:25:41;5.40;;;3.05;;
54517;SDS011;40423;53.176;6.002;2022-07-29T15:28:07;6.10;;;2.63;;
54517;SDS011;40423;53.176;6.002;2022-07-29T15:30:33;4.32;;;2.42;;
54517;SDS011;40423;53.176;6.002;2022-07-29T15:33:01;5.05;;;2.30;;
54517;SDS011;40423;53.176;6.002;2022-07-29T15:35:28;4.57;;;2.20;;
54517;SDS011;40423;53.176;6.002;2022-07-29T15:37:54;5.97;;;2.40;;
54517;SDS011;40423;53.176;6.002;2022-07-29T15:40:19;7.03;;;2.47;;
54517;SDS011;40423;53.176;6.002;2022-07-29T15:42:45;5.10;;;2.50;;
54517;SDS011;40423;53.176;6.002;2022-07-29T15:45:11;8.18;;;2.60;;
54517;SDS011;40423;53.176;6.002;2022-07-29T15:47:36;6.32;;;2.70;;
54517;SDS011;40423;53.176;6.002;2022-07-29T15:50:02;7.82;;;2.33;;
54517;SDS011;40423;53.176;6.002;2022-07-29T15:52:28;6.95;;;2.85;;
54517;SDS011;40423;53.176;6.002;2022-07-29T15:54:54;4.97;;;2.15;;
54517;SDS011;40423;53.176;6.002;2022-07-29T15:57:21;8.38;;;2.75;;
54517;SDS011;40423;53.176;6.002;2022-07-29T15:59:48;5.05;;;2.22;;
54517;SDS011;40423;53.176;6.002;2022-07-29T16:02:15;5.13;;;2.42;;
54517;SDS011;40423;53.176;6.002;2022-07-29T16:04:41;6.43;;;2.38;;
54517;SDS011;40423;53.176;6.002;2022-07-29T16:07:07;7.55;;;2.78;;
54517;SDS011;40423;53.176;6.002;2022-07-29T16:09:33;6.40;;;2.70;;
54517;SDS011;40423;53.176;6.002;2022-07-29T16:11:59;5.05;;;2.05;;
54517;SDS011;40423;53.176;6.002;2022-07-29T16:14:24;4.90;;;2.90;;
54517;SDS011;40423;53.176;6.002;2022-07-29T16:16:50;8.82;;;2.92;;
54517;SDS011;40423;53.176;6.002;2022-07-29T16:19:16;8.20;;;2.90;;
54517;SDS011;40423;53.176;6.002;2022-07-29T16:21:41;3.97;;;2.20;;
54517;SDS011;40423;53.176;6.002;2022-07-29T16:24:07;7.93;;;2.05;;
54517;SDS011;40423;53.176;6.002;2022-07-29T16:26:33;8.85;;;2.70;;
54517;SDS011;40423;53.176;6.002;2022-07-29T16:28:59;5.13;;;2.10;;
54517;SDS011;40423;53.176;6.002;2022-07-29T16:31:25;5.47;;;2.10;;